Time;durP1;ratioP1;P1;durP2;ratioP2;P2;SDS_P1;SDS_P2;PMS_P1;PMS_P2;Temp;Humidity;BMP_temperature;BMP_pressure;BME280_temperature;BME280_humidity;BME280_pressure;Samples;Min_cycle;Max_cycle;Signal;HPM_P1;HPM_P2
2021/10/29 00:00:49;;;;;;;36.22;26.80;;;12.10;99.90;;;;;;5014146;28;20065;-76
2021/10/29 00:03:15;;;;;;;39.80;28.02;;;12.10;99.90;;;;;;5023129;28;20029;-75
2021/10/29 00:05:42;;;;;;;37.63;26.85;;;12.10;99.90;;;;;;5014362;28;20058;-77
2021/10/29 00:08:08;;;;;;;40.85;26.83;;;12.00;99.90;;;;;;5013968;28;20113;-78
2021/10/29 00:10:34;;;;;;;46.15;29.40;;;12.00;99.90;;;;;;5013476;28;20553;-75
2021/10/29 00:13:00;;;;;;;38.13;26.50;;;11.90;99.90;;;;;;5018090;28;20038;-74
2021/10/29 00:15:26;;;;;;;43.20;27.40;;;11.90;99.90;;;;;;5014167;28;20525;-76
2021/10/29 00:17:52;;;;;;;40.78;29.42;;;11.90;99.90;;;;;;5015090;28;20042;-76
2021/10/29 00:20:18;;;;;;;40.83;27.98;;;11.90;99.90;;;;;;5013774;28;20050;-76
2021/10/29 00:22:44;;;;;;;40.90;27.05;;;11.80;99.90;;;;;;5014990;28;20033;-75
2021/10/29 00:25:10;;;;;;;42.88;27.27;;;11.90;99.90;;;;;;5013848;28;20042;-75
2021/10/29 00:27:35;;;;;;;39.70;27.83;;;11.90;99.90;;;;;;5013655;28;20087;-75
2021/10/29 00:30:02;;;;;;;39.67;27.45;;;11.90;99.90;;;;;;5013802;28;20466;-76
2021/10/29 00:32:29;;;;;;;43.90;29.80;;;11.80;99.90;;;;;;5004145;28;20034;-75
2021/10/29 00:34:55;;;;;;;42.05;27.35;;;11.80;99.90;;;;;;5013629;28;20482;-76
2021/10/29 00:37:21;;;;;;;44.30;29.05;;;11.80;99.90;;;;;;5014295;28;20110;-75
2021/10/29 00:39:46;;;;;;;46.05;29.20;;;11.80;99.90;;;;;;5013391;28;20030;-74
2021/10/29 00:42:12;;;;;;;41.97;29.60;;;11.70;99.90;;;;;;5013048;28;20036;-76
2021/10/29 00:44:38;;;;;;;50.13;29.73;;;11.70;99.90;;;;;;5013941;28;20056;-76
2021/10/29 00:47:04;;;;;;;40.00;28.30;;;11.70;99.90;;;;;;5019478;28;20121;-77
2021/10/29 00:49:29;;;;;;;38.72;28.08;;;11.70;99.90;;;;;;5013574;28;20045;-77
2021/10/29 00:51:55;;;;;;;41.97;28.45;;;11.70;99.90;;;;;;5012910;28;20037;-76
2021/10/29 00:54:21;;;;;;;47.92;28.40;;;11.60;99.90;;;;;;5013390;28;20040;-74
2021/10/29 00:56:48;;;;;;;45.88;28.48;;;11.60;99.90;;;;;;5013448;28;20113;-77
2021/10/29 00:59:17;;;;;;;45.17;30.58;;;11.60;99.90;;;;;;5013116;28;20038;-76
2021/10/29 01:01:43;;;;;;;43.35;29.58;;;11.60;99.90;;;;;;5017776;28;20036;-75
2021/10/29 01:04:09;;;;;;;41.00;28.05;;;11.60;99.90;;;;;;5020846;28;20407;-75
2021/10/29 01:06:35;;;;;;;42.33;29.23;;;11.60;99.90;;;;;;5014339;28;20376;-75
2021/10/29 01:09:10;;;;;;;46.88;30.42;;;11.50;99.90;;;;;;5013537;28;20033;-76
2021/10/29 01:11:38;;;;;;;46.20;29.83;;;11.50;99.90;;;;;;5010488;28;20025;-76
2021/10/29 01:14:04;;;;;;;44.65;29.67;;;11.50;99.90;;;;;;5012843;28;20022;-77
2021/10/29 01:16:30;;;;;;;48.50;28.75;;;11.40;99.90;;;;;;5013464;28;20031;-77
2021/10/29 01:18:56;;;;;;;43.50;29.52;;;11.40;99.90;;;;;;5012909;28;20026;-74
2021/10/29 01:21:21;;;;;;;45.92;29.65;;;11.30;99.90;;;;;;4995529;28;20065;-76
2021/10/29 01:23:47;;;;;;;41.65;30.08;;;11.30;99.90;;;;;;5012559;28;20048;-77
2021/10/29 01:26:16;;;;;;;44.17;30.25;;;11.30;99.90;;;;;;5012991;28;20379;-74
2021/10/29 01:28:42;;;;;;;42.30;28.98;;;11.30;99.90;;;;;;5012678;28;20501;-75
2021/10/29 01:31:08;;;;;;;43.75;30.40;;;11.20;99.90;;;;;;5013846;28;20037;-76
2021/10/29 01:33:34;;;;;;;48.13;30.33;;;11.20;99.90;;;;;;5013195;28;20022;-74
2021/10/29 01:36:00;;;;;;;45.85;30.73;;;11.20;99.90;;;;;;5013358;28;20038;-76
2021/10/29 01:38:40;;;;;;;45.10;30.17;;;11.20;99.90;;;;;;5020308;28;20038;-75
2021/10/29 01:41:07;;;;;;;44.05;29.45;;;11.20;99.90;;;;;;4975160;28;20107;-76
2021/10/29 01:43:48;;;;;;;41.08;29.42;;;11.10;99.90;;;;;;5001603;28;20053;-74
2021/10/29 01:46:14;;;;;;;42.28;28.67;;;11.10;99.90;;;;;;5010383;28;20069;-76
2021/10/29 01:48:45;;;;;;;52.40;30.83;;;11.10;99.90;;;;;;5012454;28;20037;-75
2021/10/29 01:51:12;;;;;;;45.65;29.60;;;11.10;99.90;;;;;;5014643;28;20040;-76
2021/10/29 01:53:37;;;;;;;46.22;29.75;;;11.00;99.90;;;;;;5012787;28;20386;-77
2021/10/29 01:56:04;;;;;;;47.22;31.85;;;11.00;99.90;;;;;;5011998;28;20034;-76
2021/10/29 01:58:30;;;;;;;45.78;31.48;;;11.00;99.90;;;;;;5012932;28;20034;-74
2021/10/29 02:00:56;;;;;;;42.30;30.45;;;11.00;99.90;;;;;;4994944;28;20038;-75
2021/10/29 02:03:21;;;;;;;42.15;29.55;;;11.00;99.90;;;;;;5011476;28;20113;-74
2021/10/29 02:05:47;;;;;;;43.28;28.63;;;10.90;99.90;;;;;;5011982;28;20133;-77
2021/10/29 02:08:13;;;;;;;46.10;30.35;;;10.90;99.90;;;;;;5012862;28;20062;-74
2021/10/29 02:10:38;;;;;;;45.70;29.25;;;10.90;99.90;;;;;;5012198;28;20037;-74
2021/10/29 02:13:04;;;;;;;41.15;28.60;;;10.90;99.90;;;;;;4994613;28;20121;-76
2021/10/29 02:15:30;;;;;;;42.58;29.55;;;10.80;99.90;;;;;;5012126;28;20041;-76
2021/10/29 02:17:56;;;;;;;47.35;30.92;;;10.80;99.90;;;;;;5012042;28;20141;-76
2021/10/29 02:20:22;;;;;;;45.88;29.25;;;10.70;99.90;;;;;;5013889;28;20053;-77
2021/10/29 02:22:48;;;;;;;47.97;30.40;;;10.70;99.90;;;;;;5021756;28;20030;-76
2021/10/29 02:25:13;;;;;;;45.38;28.77;;;10.70;99.90;;;;;;5011727;28;20038;-76
2021/10/29 02:27:39;;;;;;;45.80;29.77;;;10.70;99.90;;;;;;5013577;28;20026;-75
2021/10/29 02:30:06;;;;;;;48.80;30.17;;;10.60;99.90;;;;;;4994876;28;20127;-76
2021/10/29 02:32:32;;;;;;;45.67;28.85;;;10.60;99.90;;;;;;5024023;28;20080;-77
2021/10/29 02:34:57;;;;;;;44.42;28.13;;;10.70;99.90;;;;;;5015687;28;20046;-75
2021/10/29 02:37:23;;;;;;;45.25;28.58;;;10.70;99.90;;;;;;5016458;28;20486;-77
2021/10/29 02:39:49;;;;;;;44.03;28.95;;;10.70;99.90;;;;;;5022048;28;20041;-74
2021/10/29 02:42:15;;;;;;;45.70;28.10;;;10.70;99.90;;;;;;5016905;28;20088;-76
2021/10/29 02:44:42;;;;;;;44.92;27.98;;;10.70;99.90;;;;;;5015510;28;20033;-76
2021/10/29 02:47:08;;;;;;;40.22;27.35;;;10.80;99.90;;;;;;5015891;28;20449;-73
2021/10/29 02:49:34;;;;;;;40.20;28.55;;;10.80;99.90;;;;;;5015925;28;20085;-76
2021/10/29 02:51:59;;;;;;;40.30;27.55;;;10.90;99.90;;;;;;5015750;28;20038;-76
2021/10/29 02:54:25;;;;;;;43.65;27.52;;;10.80;99.90;;;;;;5015419;28;20116;-75
2021/10/29 02:56:51;;;;;;;41.70;27.80;;;10.80;99.90;;;;;;5016718;28;20034;-76
2021/10/29 02:59:17;;;;;;;46.13;29.20;;;10.80;99.90;;;;;;5015864;28;20100;-77
2021/10/29 03:01:43;;;;;;;38.10;26.17;;;10.80;99.90;;;;;;5015383;28;20068;-76
2021/10/29 03:04:08;;;;;;;44.80;28.15;;;10.80;99.90;;;;;;5015782;28;20077;-76
2021/10/29 03:06:34;;;;;;;40.72;28.55;;;10.80;99.90;;;;;;5017253;28;20084;-75
2021/10/29 03:09:00;;;;;;;45.28;27.77;;;10.80;99.90;;;;;;5025889;28;20038;-76
2021/10/29 03:11:26;;;;;;;43.53;27.30;;;10.90;99.90;;;;;;5015241;28;20034;-76
2021/10/29 03:13:51;;;;;;;42.00;27.85;;;10.90;99.90;;;;;;5016321;28;20113;-76
2021/10/29 03:16:17;;;;;;;49.63;30.30;;;10.80;99.90;;;;;;5015151;28;20041;-77
2021/10/29 03:18:43;;;;;;;47.88;29.40;;;10.90;99.90;;;;;;5014851;28;20025;-76
2021/10/29 03:21:09;;;;;;;47.40;28.95;;;10.80;99.90;;;;;;5014636;28;20119;-75
2021/10/29 03:23:35;;;;;;;50.42;28.90;;;10.80;99.90;;;;;;5014977;28;20041;-75
2021/10/29 03:26:01;;;;;;;43.67;28.88;;;10.80;99.90;;;;;;5015183;28;20053;-76
2021/10/29 03:28:27;;;;;;;49.75;29.88;;;10.90;99.90;;;;;;5016255;28;20138;-76
2021/10/29 03:30:54;;;;;;;47.78;29.52;;;10.80;99.90;;;;;;5014587;28;20093;-77
2021/10/29 03:33:20;;;;;;;44.17;29.30;;;10.90;99.90;;;;;;5014764;28;20112;-76
2021/10/29 03:35:46;;;;;;;47.05;28.02;;;10.90;99.90;;;;;;5016732;28;20100;-76
2021/10/29 03:38:34;;;;;;;47.60;30.52;;;10.80;99.90;;;;;;5014886;28;20079;-76
2021/10/29 03:43:29;;;;;;;43.58;28.17;;;10.80;99.90;;;;;;5015803;28;20060;-76
2021/10/29 03:45:59;;;;;;;;;;;10.80;99.90;;;;;;4997740;28;20046;-76
2021/10/29 03:51:23;;;;;;;47.00;28.95;;;10.90;99.90;;;;;;4983953;28;20095;-76
2021/10/29 03:54:00;;;;;;;42.22;28.83;;;10.90;99.90;;;;;;5014762;28;20036;-77
2021/10/29 03:56:27;;;;;;;46.78;28.23;;;10.80;99.90;;;;;;5015586;28;20029;-77
2021/10/29 03:58:55;;;;;;;46.10;29.80;;;10.80;99.90;;;;;;5014684;28;20042;-75
2021/10/29 04:01:21;;;;;;;46.05;29.00;;;10.80;99.90;;;;;;5014308;28;20105;-75
2021/10/29 04:03:47;;;;;;;54.40;30.52;;;10.80;99.90;;;;;;5014149;28;20107;-77
2021/10/29 04:06:13;;;;;;;45.15;29.60;;;10.80;99.90;;;;;;5013936;28;20739;-77
2021/10/29 04:08:39;;;;;;;44.03;29.55;;;10.80;99.90;;;;;;5017326;28;20026;-76
2021/10/29 04:11:06;;;;;;;45.95;30.02;;;10.80;99.90;;;;;;5000594;28;20532;-75
2021/10/29 04:13:37;;;;;;;46.40;30.55;;;10.70;99.90;;;;;;5014539;28;20057;-75
2021/10/29 04:16:04;;;;;;;45.72;30.42;;;10.80;99.90;;;;;;5013768;28;20045;-76
2021/10/29 04:18:34;;;;;;;58.10;30.08;;;10.80;99.90;;;;;;5013561;28;20018;-76
2021/10/29 04:21:00;;;;;;;45.10;30.38;;;10.80;99.90;;;;;;5013381;28;20671;-76
2021/10/29 04:23:26;;;;;;;43.35;30.92;;;10.70;99.90;;;;;;5013764;28;20030;-76
2021/10/29 04:25:53;;;;;;;49.08;30.30;;;10.70;99.90;;;;;;5013652;28;20053;-76
2021/10/29 04:28:19;;;;;;;52.88;33.65;;;10.80;99.90;;;;;;5014681;28;20026;-77
2021/10/29 04:30:46;;;;;;;43.55;29.77;;;10.80;99.90;;;;;;5013894;28;20026;-75
2021/10/29 04:33:13;;;;;;;51.80;31.65;;;10.70;99.90;;;;;;5014247;28;20030;-76
2021/10/29 04:35:42;;;;;;;51.67;33.80;;;10.70;99.90;;;;;;5013302;28;20029;-75
2021/10/29 04:38:09;;;;;;;48.45;32.58;;;10.70;99.90;;;;;;5013408;28;20030;-75
2021/10/29 04:40:37;;;;;;;47.67;31.02;;;10.70;99.90;;;;;;5015756;28;20105;-74
2021/10/29 04:43:07;;;;;;;52.83;31.48;;;10.70;99.90;;;;;;5014441;28;20026;-75
2021/10/29 04:45:33;;;;;;;47.03;31.85;;;10.70;99.90;;;;;;4995654;28;20045;-77
2021/10/29 04:48:01;;;;;;;54.47;32.38;;;10.70;99.90;;;;;;4996874;28;20184;-76
2021/10/29 04:50:27;;;;;;;56.58;33.88;;;10.70;99.90;;;;;;5012851;28;21272;-74
2021/10/29 04:52:53;;;;;;;47.65;31.70;;;10.70;99.90;;;;;;5018850;28;20037;-76
2021/10/29 04:55:18;;;;;;;53.30;33.35;;;10.70;99.90;;;;;;5012700;28;20034;-75
2021/10/29 04:57:44;;;;;;;50.95;31.45;;;10.70;99.90;;;;;;5027078;28;20493;-77
2021/10/29 05:00:11;;;;;;;46.88;31.40;;;10.70;99.90;;;;;;5010153;28;20113;-76
2021/10/29 05:02:36;;;;;;;51.63;32.35;;;10.70;99.90;;;;;;5015758;28;20112;-74
2021/10/29 05:05:04;;;;;;;52.88;34.40;;;10.70;99.90;;;;;;5012753;28;20490;-76
2021/10/29 05:07:31;;;;;;;57.25;36.05;;;10.60;99.90;;;;;;5020498;28;20030;-76
2021/10/29 05:09:57;;;;;;;52.75;34.78;;;10.60;99.90;;;;;;5012904;28;20026;-74
2021/10/29 05:12:23;;;;;;;49.72;31.35;;;10.60;99.90;;;;;;4993864;28;20057;-76
2021/10/29 05:14:48;;;;;;;50.97;33.00;;;10.60;99.90;;;;;;5013005;28;20097;-75
2021/10/29 05:17:14;;;;;;;51.20;33.20;;;10.50;99.90;;;;;;5019131;28;20030;-75
2021/10/29 05:19:40;;;;;;;53.17;34.88;;;10.50;99.90;;;;;;5012226;28;20030;-77
2021/10/29 05:22:06;;;;;;;55.30;35.42;;;10.50;99.90;;;;;;5013531;28;20041;-75
2021/10/29 05:24:32;;;;;;;54.33;34.83;;;10.40;99.90;;;;;;5016770;28;20045;-77
2021/10/29 05:26:57;;;;;;;55.40;34.78;;;10.40;99.90;;;;;;5014110;28;20504;-76
2021/10/29 05:29:23;;;;;;;53.20;34.92;;;10.40;99.90;;;;;;5015512;28;20072;-77
2021/10/29 05:31:50;;;;;;;51.38;35.30;;;10.40;99.90;;;;;;5014488;28;20025;-80
2021/10/29 05:34:16;;;;;;;51.50;32.17;;;10.40;99.90;;;;;;5012579;28;20057;-80
2021/10/29 05:36:42;;;;;;;56.03;32.95;;;10.40;99.90;;;;;;5014980;28;20058;-80
2021/10/29 05:39:10;;;;;;;50.78;33.33;;;10.40;99.90;;;;;;5012578;28;20108;-78
2021/10/29 05:41:36;;;;;;;53.28;33.42;;;10.50;99.90;;;;;;4994709;28;20033;-77
2021/10/29 05:44:01;;;;;;;49.25;34.33;;;10.50;99.90;;;;;;5011214;28;20108;-80
2021/10/29 05:46:30;;;;;;;61.45;35.30;;;10.50;99.90;;;;;;5006339;28;20105;-79
2021/10/29 05:48:57;;;;;;;58.03;35.13;;;10.50;99.90;;;;;;5009985;28;20033;-80
2021/10/29 05:51:24;;;;;;;57.42;33.47;;;10.50;99.90;;;;;;5013058;28;20033;-80
2021/10/29 05:56:16;;;;;;;55.38;34.38;;;10.50;99.90;;;;;;5012496;28;20490;-81
2021/10/29 05:58:42;;;;;;;51.25;32.80;;;10.60;99.90;;;;;;4994459;28;20037;-80
2021/10/29 06:01:08;;;;;;;56.30;32.90;;;10.60;99.90;;;;;;5011650;28;20030;-80
2021/10/29 06:03:34;;;;;;;58.25;34.10;;;10.60;99.90;;;;;;4993817;28;20375;-80
2021/10/29 06:06:00;;;;;;;60.47;35.35;;;10.60;99.90;;;;;;5012282;28;20458;-76
2021/10/29 06:08:26;;;;;;;53.10;34.10;;;10.70;99.90;;;;;;5014426;28;20037;-80
2021/10/29 06:10:52;;;;;;;56.95;34.40;;;11.10;99.90;;;;;;5017365;28;20038;-77
2021/10/29 06:13:18;;;;;;;49.63;31.80;;;11.30;99.90;;;;;;5016352;28;20494;-80
2021/10/29 06:15:46;;;;;;;48.25;31.77;;;11.60;99.90;;;;;;5016623;28;20041;-80
2021/10/29 06:18:12;;;;;;;44.58;31.52;;;11.90;99.90;;;;;;5017078;28;20030;-76
2021/10/29 06:20:39;;;;;;;49.55;32.08;;;12.20;99.90;;;;;;5017962;28;20100;-80
2021/10/29 06:23:07;;;;;;;52.72;32.60;;;12.40;99.90;;;;;;5016557;28;20030;-80
2021/10/29 06:25:41;;;;;;;51.17;31.70;;;12.70;99.90;;;;;;5016330;28;20069;-75
2021/10/29 06:31:05;;;;;;;45.25;30.80;;;13.20;99.50;;;;;;4972630;28;20084;-79
2021/10/29 06:33:31;;;;;;;46.75;29.98;;;13.40;99.10;;;;;;5016133;28;20426;-79
2021/10/29 06:35:56;;;;;;;43.75;30.35;;;13.60;98.80;;;;;;5016260;28;20113;-77
2021/10/29 06:38:22;;;;;;;47.05;30.70;;;13.80;98.50;;;;;;4998463;28;20084;-81
2021/10/29 06:40:50;;;;;;;51.17;32.53;;;14.00;98.20;;;;;;5015845;28;20026;-79
2021/10/29 06:43:41;;;;;;;48.70;30.67;;;14.10;98.30;;;;;;5016040;28;20475;-80
2021/10/29 07:02:15;;;;;;;40.28;29.20;;;15.80;96.40;;;;;;5027894;28;20112;-75
2021/10/29 07:40:19;;;;;;;41.28;29.42;;;16.20;96.10;;;;;;5018690;28;20092;-77
2021/10/29 07:45:21;;;;;;;44.30;30.20;;;16.10;96.20;;;;;;5021568;28;20038;-79
2021/10/29 07:47:47;;;;;;;39.33;28.63;;;16.30;96.10;;;;;;5021893;28;20470;-77
2021/10/29 07:50:15;;;;;;;38.33;29.67;;;16.10;96.10;;;;;;5013544;28;20029;-78
2021/10/29 07:52:43;;;;;;;43.78;27.98;;;16.00;96.30;;;;;;5016344;28;20094;-78
2021/10/29 07:55:10;;;;;;;42.38;29.27;;;16.10;96.30;;;;;;5019133;28;20036;-78
2021/10/29 07:57:36;;;;;;;41.20;29.33;;;16.10;96.20;;;;;;5014427;28;20375;-80
2021/10/29 08:00:05;;;;;;;42.10;30.40;;;16.10;96.40;;;;;;5018262;28;20030;-79
2021/10/29 08:02:32;;;;;;;41.85;30.20;;;16.30;96.30;;;;;;4996780;28;20121;-81
2021/10/29 08:04:57;;;;;;;42.15;30.05;;;16.40;96.30;;;;;;5022639;28;20038;-82
2021/10/29 08:07:23;;;;;;;45.63;31.58;;;16.80;95.70;;;;;;5021716;28;20543;-78
2021/10/29 08:09:49;;;;;;;42.92;29.73;;;16.90;96.10;;;;;;5015123;28;20033;-79
2021/10/29 08:12:16;;;;;;;41.95;30.35;;;16.90;95.70;;;;;;5029128;28;20029;-77
2021/10/29 08:14:44;;;;;;;45.42;30.92;;;17.00;95.70;;;;;;5030370;28;20474;-74
2021/10/29 08:17:10;;;;;;;44.40;30.13;;;17.10;95.70;;;;;;5020811;28;20030;-79
2021/10/29 08:19:37;;;;;;;45.90;29.38;;;17.20;95.70;;;;;;5028644;28;20034;-81
2021/10/29 08:22:04;;;;;;;41.92;30.38;;;17.60;95.30;;;;;;5001748;28;20045;-81
2021/10/29 08:24:32;;;;;;;44.95;30.27;;;18.10;94.70;;;;;;5027522;28;20457;-78
2021/10/29 08:26:58;;;;;;;41.50;28.20;;;18.60;94.10;;;;;;5017567;28;20475;-81
2021/10/29 08:29:24;;;;;;;40.75;28.98;;;19.20;93.60;;;;;;5013464;28;20045;-78
2021/10/29 08:31:51;;;;;;;42.53;29.63;;;19.90;92.70;;;;;;5016953;28;20030;-75
2021/10/29 08:34:24;;;;;;;42.97;28.13;;;20.10;92.20;;;;;;5023671;28;20038;-79
2021/10/29 08:36:50;;;;;;;36.88;28.13;;;20.60;91.80;;;;;;4995854;28;20386;-78
2021/10/29 08:39:16;;;;;;;40.20;27.67;;;21.40;91.30;;;;;;5022967;28;20034;-78
2021/10/29 08:41:45;;;;;;;42.85;27.60;;;22.10;90.40;;;;;;5014188;28;20037;-78
2021/10/29 08:44:12;;;;;;;40.17;26.92;;;22.20;89.70;;;;;;5013588;28;20087;-81
2021/10/29 08:46:38;;;;;;;37.63;27.50;;;22.70;88.90;;;;;;5009080;28;20034;-78
2021/10/29 08:49:07;;;;;;;38.70;27.98;;;22.60;87.00;;;;;;5011394;28;20118;-80
2021/10/29 08:51:32;;;;;;;37.15;25.95;;;21.70;89.60;;;;;;5015718;28;20030;-77
2021/10/29 08:53:58;;;;;;;37.40;27.08;;;22.20;88.10;;;;;;5017861;28;20038;-80
2021/10/29 08:56:24;;;;;;;37.22;26.30;;;22.20;88.00;;;;;;5021473;28;20102;-80
2021/10/29 08:59:15;;;;;;;38.65;27.15;;;22.60;87.90;;;;;;5015504;28;20033;-79
2021/10/29 09:02:03;;;;;;;35.10;24.75;;;23.90;85.10;;;;;;5012296;28;20429;-78
2021/10/29 09:32:25;;;;;;;33.75;24.17;;;27.70;72.50;;;;;;5016320;28;20053;-82
2021/10/29 09:34:58;;;;;;;32.55;23.67;;;28.10;71.60;;;;;;5017870;28;20037;-78
2021/10/29 09:37:24;;;;;;;28.42;22.05;;;28.00;71.60;;;;;;5018491;28;20481;-82
2021/10/29 09:39:54;;;;;;;27.33;22.10;;;27.60;72.20;;;;;;5014720;28;20104;-79
2021/10/29 09:42:21;;;;;;;27.10;21.38;;;28.00;71.20;;;;;;5012721;28;20026;-80
2021/10/29 09:44:53;;;;;;;31.77;22.17;;;28.20;70.40;;;;;;5019826;28;20469;-82
2021/10/29 09:47:23;;;;;;;33.40;22.42;;;28.80;70.70;;;;;;5016410;28;20030;-81
2021/10/29 09:49:51;;;;;;;40.58;22.52;;;29.40;69.20;;;;;;5013076;28;20034;-82
2021/10/29 09:55:14;;;;;;;30.55;21.92;;;29.00;69.40;;;;;;5018941;28;20030;-81
2021/10/29 09:57:39;;;;;;;27.73;21.27;;;29.50;68.10;;;;;;5018188;28;20030;-80
2021/10/29 10:00:13;;;;;;;26.52;19.48;;;30.60;66.60;;;;;;5017317;28;20482;-77
2021/10/29 10:02:43;;;;;;;31.83;20.48;;;31.50;64.10;;;;;;5014428;28;20029;-77
2021/10/29 10:05:10;;;;;;;23.83;18.90;;;30.60;64.90;;;;;;5017424;28;20042;-78
2021/10/29 10:07:38;;;;;;;34.28;18.90;;;29.40;64.20;;;;;;5019578;28;20616;-76
2021/10/29 10:10:11;;;;;;;28.35;19.10;;;29.80;65.40;;;;;;5022583;28;20095;-76
2021/10/29 10:12:40;;;;;;;24.45;19.50;;;30.50;63.80;;;;;;5016943;28;20041;-79
2021/10/29 10:15:08;;;;;;;24.27;18.00;;;30.10;63.90;;;;;;5010019;28;20146;-76
2021/10/29 10:17:34;;;;;;;22.45;18.35;;;30.60;63.30;;;;;;5016809;28;20034;-77
2021/10/29 10:20:03;;;;;;;24.67;18.75;;;29.60;64.10;;;;;;5020170;28;20033;-78
2021/10/29 10:22:39;;;;;;;26.02;19.55;;;30.00;63.90;;;;;;5022278;28;20109;-77
2021/10/29 10:25:12;;;;;;;24.60;19.85;;;29.60;64.10;;;;;;5029971;28;20037;-76
2021/10/29 10:28:33;;;;;;;28.48;20.58;;;27.60;66.60;;;;;;5016082;28;20379;-75
2021/10/29 10:31:09;;;;;;;27.67;20.95;;;25.50;70.00;;;;;;5015358;28;20124;-75
2021/10/29 10:42:26;;;;;;;28.88;21.98;;;22.00;78.10;;;;;;5024604;28;20040;-77
2021/10/29 10:47:43;;;;;;;28.48;22.98;;;21.10;80.50;;;;;;5022074;28;20136;-77
2021/10/29 10:50:17;;;;;;;33.78;23.38;;;20.60;81.80;;;;;;5024744;28;20037;-76
2021/10/29 10:53:09;;;;;;;29.95;23.30;;;20.40;82.70;;;;;;5003960;28;20043;-77
2021/10/29 10:56:26;;;;;;;36.25;24.05;;;20.10;82.90;;;;;;5030061;28;20040;-74
2021/10/29 10:59:36;;;;;;;33.47;23.38;;;19.70;83.90;;;;;;5016220;28;20453;-75
2021/10/29 11:10:20;;;;;;;30.55;22.08;;;19.50;85.60;;;;;;5015972;28;20532;-75
2021/10/29 11:12:46;;;;;;;35.55;23.02;;;19.50;85.70;;;;;;5023994;28;20041;-75
2021/10/29 11:15:25;;;;;;;33.40;23.63;;;19.50;85.60;;;;;;5028460;28;20022;-75
2021/10/29 11:17:58;;;;;;;28.92;21.60;;;19.60;85.20;;;;;;5022972;28;20096;-75
2021/10/29 11:20:40;;;;;;;34.85;23.38;;;19.50;85.20;;;;;;5019285;28;20041;-75
2021/10/29 11:23:09;;;;;;;;;;;19.60;85.60;;;;;;5029502;28;20041;-77
2021/10/29 11:26:03;;;;;;;35.85;22.55;;;19.70;85.70;;;;;;5030139;28;19924;-75
2021/10/29 11:28:41;;;;;;;35.58;23.55;;;19.90;85.70;;;;;;5005082;28;20029;-75
2021/10/29 11:31:13;;;;;;;31.65;22.70;;;20.00;85.50;;;;;;5013911;28;20491;-75
2021/10/29 11:33:45;;;;;;;29.45;22.42;;;20.00;85.20;;;;;;5024054;28;20038;-77
2021/10/29 11:36:14;;;;;;;31.50;22.52;;;20.00;85.10;;;;;;5027289;28;20120;-74
2021/10/29 11:38:42;;;;;;;34.10;22.55;;;20.00;85.80;;;;;;5020798;28;20049;-75
2021/10/29 11:41:20;;;;;;;32.70;22.23;;;20.00;85.80;;;;;;5030890;28;20034;-73
2021/10/29 11:43:46;;;;;;;26.92;20.75;;;20.00;86.20;;;;;;5018613;28;20030;-76
2021/10/29 11:46:14;;;;;;;24.20;16.88;;;20.10;87.20;;;;;;5020005;28;20042;-75
2021/10/29 11:48:58;;;;;;;22.85;15.98;;;20.20;87.70;;;;;;4998522;28;20038;-76
2021/10/29 11:51:24;;;;;;;24.48;17.52;;;20.30;89.20;;;;;;5022664;28;20560;-77
2021/10/29 11:56:35;;;;;;;24.20;16.15;;;20.30;90.10;;;;;;5022388;28;20492;-75
2021/10/29 11:59:23;;;;;;;24.75;15.93;;;20.30;89.50;;;;;;5027065;28;20053;-76
2021/10/29 12:01:55;;;;;;;21.27;16.35;;;20.40;89.70;;;;;;5024067;28;20037;-75
2021/10/29 12:07:17;;;;;;;24.77;16.40;;;20.30;89.50;;;;;;5019478;28;20373;-75
2021/10/29 12:09:45;;;;;;;27.27;18.20;;;20.20;90.00;;;;;;5020288;28;20476;-75
2021/10/29 12:12:13;;;;;;;24.15;18.20;;;20.10;90.30;;;;;;5013167;28;20052;-75
2021/10/29 12:14:41;;;;;;;28.52;18.40;;;20.10;90.50;;;;;;5026610;28;20025;-78
2021/10/29 12:17:23;;;;;;;26.63;18.42;;;20.20;90.50;;;;;;5025448;28;20033;-77
2021/10/29 12:19:54;;;;;;;28.40;19.65;;;20.20;90.40;;;;;;5026634;28;20027;-77
2021/10/29 12:25:11;;;;;;;29.63;20.23;;;20.00;90.40;;;;;;5016281;28;20474;-78
2021/10/29 12:27:42;;;;;;;26.27;19.00;;;19.90;90.80;;;;;;5018192;28;20038;-77
2021/10/29 13:03:25;;;;;;;38.60;23.90;;;19.60;91.70;;;;;;5018099;28;20537;-77
2021/10/29 13:05:55;;;;;;;34.03;24.48;;;19.50;91.50;;;;;;5020195;28;20084;-78
2021/10/29 13:08:23;;;;;;;41.30;24.75;;;19.40;91.60;;;;;;5014068;28;20173;-79
2021/10/29 13:10:54;;;;;;;40.53;24.27;;;19.40;91.80;;;;;;5018676;28;20041;-78
2021/10/29 13:13:35;;;;;;;31.50;23.13;;;19.30;91.70;;;;;;5014776;28;20056;-78
2021/10/29 13:16:04;;;;;;;26.63;20.88;;;19.30;91.30;;;;;;5020042;28;20018;-78
2021/10/29 13:19:14;;;;;;;31.73;21.20;;;19.20;90.80;;;;;;5013189;28;20056;-77
2021/10/29 13:24:25;;;;;;;32.05;21.88;;;19.10;91.50;;;;;;5023517;28;20037;-76
2021/10/29 13:51:20;;;;;;;27.58;17.58;;;18.60;96.70;;;;;;5011554;28;20049;-76
2021/10/29 13:53:57;;;;;;;22.52;17.00;;;18.50;97.10;;;;;;5022796;28;20028;-76
2021/10/29 13:56:43;;;;;;;30.15;17.35;;;18.50;97.10;;;;;;5021846;28;20069;-77
2021/10/29 14:31:28;;;;;;;22.25;14.65;;;18.00;99.90;;;;;;5023937;28;20046;-75
2021/10/29 14:36:41;;;;;;;28.42;14.88;;;18.00;99.90;;;;;;5025797;28;20042;-77
2021/10/29 14:39:12;;;;;;;30.08;15.40;;;17.90;99.90;;;;;;5024536;28;20099;-72
2021/10/29 14:44:30;;;;;;;21.05;14.48;;;17.90;99.90;;;;;;4978357;28;20081;-74
2021/10/29 15:06:31;;;;;;;20.10;14.50;;;17.60;99.90;;;;;;5032534;28;20144;-74
2021/10/29 15:28:22;;;;;;;22.35;16.52;;;17.10;99.90;;;;;;5027655;28;20029;-73
2021/10/29 15:30:30;;;;;;;28.70;18.45;;;16.90;99.90;;;;;;5013635;28;20113;-71
2021/10/29 15:44:21;;;;;;;28.30;17.65;;;16.70;99.90;;;;;;5014887;28;20034;-72
2021/10/29 15:47:09;;;;;;;27.02;18.42;;;16.60;99.90;;;;;;4995105;28;20119;-76
2021/10/29 15:49:52;;;;;;;28.80;18.75;;;16.50;99.90;;;;;;4995541;28;20053;-71
2021/10/29 15:52:02;;;;;;;28.58;19.05;;;16.50;99.90;;;;;;5013061;28;20041;-72
2021/10/29 15:54:31;;;;;;;28.88;19.40;;;16.50;99.90;;;;;;5025191;28;20088;-71
2021/10/29 15:57:02;;;;;;;28.27;20.08;;;16.40;99.90;;;;;;5008747;28;20030;-72
2021/10/29 15:59:46;;;;;;;33.40;19.43;;;16.40;99.90;;;;;;5028825;28;20124;-71
2021/10/29 16:02:26;;;;;;;30.02;20.88;;;16.30;99.90;;;;;;5026141;28;20503;-71
2021/10/29 16:18:33;;;;;;;35.33;21.00;;;16.10;99.90;;;;;;5022679;28;20061;-71
2021/10/29 16:20:58;;;;;;;32.88;21.27;;;16.00;99.90;;;;;;5027253;28;20497;-71
2021/10/29 16:23:28;;;;;;;41.25;25.17;;;16.00;99.90;;;;;;5025330;28;20033;-74
2021/10/29 16:26:00;;;;;;;44.83;27.08;;;15.90;99.90;;;;;;5024605;28;20366;-69
2021/10/29 16:28:33;;;;;;;51.15;27.17;;;15.90;99.90;;;;;;5024158;28;20060;-71
2021/10/29 16:31:00;;;;;;;43.83;27.67;;;15.80;99.90;;;;;;5017273;28;20038;-71
2021/10/29 16:33:32;;;;;;;44.50;28.23;;;15.70;99.90;;;;;;4996144;28;20072;-74
2021/10/29 16:35:58;;;;;;;46.40;30.02;;;15.70;99.90;;;;;;4995954;28;20053;-75
2021/10/29 16:38:25;;;;;;;47.85;32.13;;;15.70;99.90;;;;;;5013928;28;20026;-73
2021/10/29 16:40:51;;;;;;;49.85;31.08;;;15.60;99.90;;;;;;5013990;28;20144;-73
2021/10/29 16:43:18;;;;;;;43.72;29.75;;;15.60;99.90;;;;;;5018714;28;20048;-72
2021/10/29 16:45:45;;;;;;;43.58;28.80;;;15.50;99.90;;;;;;5015650;28;20033;-72
2021/10/29 16:48:16;;;;;;;45.30;28.92;;;15.50;99.90;;;;;;5013631;28;20014;-72
2021/10/29 16:50:43;;;;;;;49.08;30.50;;;15.40;99.90;;;;;;5013003;28;20080;-74
2021/10/29 16:53:09;;;;;;;43.28;27.65;;;15.40;99.90;;;;;;5013313;28;20025;-72
2021/10/29 16:55:36;;;;;;;43.05;29.05;;;15.30;99.90;;;;;;4996019;28;20064;-72
2021/10/29 16:58:03;;;;;;;45.22;28.40;;;15.30;99.90;;;;;;5013820;28;20164;-73
2021/10/29 17:00:28;;;;;;;45.35;31.77;;;15.30;99.90;;;;;;5013905;28;20014;-72
2021/10/29 17:02:54;;;;;;;56.95;37.00;;;15.20;99.90;;;;;;4995654;28;20390;-73
2021/10/29 17:05:20;;;;;;;56.45;37.15;;;15.20;99.90;;;;;;4996801;28;20037;-72
2021/10/29 17:07:46;;;;;;;57.13;37.35;;;15.10;99.90;;;;;;5021623;28;20040;-72
2021/10/29 17:10:14;;;;;;;57.55;36.25;;;15.10;99.90;;;;;;5012640;28;20403;-72
2021/10/29 17:12:41;;;;;;;57.53;35.92;;;15.00;99.90;;;;;;5020447;28;20397;-72
2021/10/29 17:15:09;;;;;;;54.47;36.63;;;14.90;99.90;;;;;;5014263;28;20056;-71
2021/10/29 17:17:35;;;;;;;59.88;38.28;;;14.90;99.90;;;;;;5027061;28;20501;-71
2021/10/29 17:20:01;;;;;;;69.50;41.63;;;14.90;99.90;;;;;;5023248;28;20046;-72
2021/10/29 17:22:27;;;;;;;73.70;44.15;;;14.80;99.90;;;;;;5004502;28;20114;-72